X  Close Metar Aviation Weather Data     KBFL Meadows Field
Temperature
82°F Temperature
39°F Dewpoint
21% Humidity



Wind
3 MPH
5 KM/H
1 M/S
3 KTS



Calm
N
Current Conditions

Clear Clear
Pressure 1009.48 (hPa) - 29.81 (inHg)
Visibility 10 (mile) - 16.1 (km)
Airport
Airport-code KBFL

Location: Meadows Field
Distance: 7 (mi)

Metar:
KBFL 161954Z VRB03KT 10SM CLR 28/04 A2981 RMK AO2 SLP088 T02830044

Time: 16-06-2024 7:54 pm PDT